Time;durP1;ratioP1;P1;durP2;ratioP2;P2;SDS_P1;SDS_P2;PMS_P1;PMS_P2;Temp;Humidity;BMP_temperature;BMP_pressure;BME280_temperature;BME280_humidity;BME280_pressure;Samples;Min_cycle;Max_cycle;Signal;HPM_P1;HPM_P2
2023/10/24 00:02:14;;;;;;;;;;;;;;;;;;;;;
2023/10/24 00:04:48;;;;;;;5.88;2.05;;;;;;;;;;5001389;28;20118;-80
2023/10/24 00:56:42;;;;;;;5.30;2.00;;;;;;;;;;4859928;29;20470;-80
2023/10/24 01:03:45;;;;;;;;;;;;;;;;;;;;;
2023/10/24 03:32:12;;;;;;;5.80;2.65;;;;;;;;;;5003423;28;20057;-81
2023/10/24 04:35:05;;;;;;;;;;;;;;;;;;;;;
2023/10/24 04:40:27;;;;;;;6.95;2.60;;;;;;;;;;4985977;28;20091;-84
2023/10/24 04:44:14;;;;;;;;;;;;;;;;;;;;;
2023/10/24 04:51:14;;;;;;;5.53;3.10;;;;;;;;;;4887133;29;20036;-81
2023/10/24 04:58:14;;;;;;;;;;;;;;;;;;;;;
2023/10/24 05:17:38;;;;;;;6.65;2.53;;;;;;;;;;1212534;26;20050;-82
2023/10/24 05:20:16;;;;;;;5.32;2.80;;;;;;;;;;5019556;28;20500;-84
2023/10/24 05:22:42;;;;;;;6.28;2.80;;;;;;;;;;5020035;28;20030;-80
2023/10/24 05:29:12;;;;;;;6.43;3.03;;;;;;;;;;4948512;29;20106;-81
2023/10/24 05:35:39;;;;;;;7.28;3.10;;;;;;;;;;5001685;28;20452;-82
2023/10/24 05:38:29;;;;;;;;;;;;;;;;;;;;;
2023/10/24 05:55:23;;;;;;;8.10;2.83;;;;;;;;;;4800534;29;20112;-81
2023/10/24 05:57:48;;;;;;;6.00;2.78;;;;;;;;;;4804574;29;20073;-78
2023/10/24 06:00:14;;;;;;;7.47;2.92;;;;;;;;;;4890085;29;20032;-80
2023/10/24 06:02:47;;;;;;;6.18;2.70;;;;;;;;;;4934904;28;20032;-81
2023/10/24 06:05:20;;;;;;;6.18;3.00;;;;;;;;;;5006479;28;20519;-80
2023/10/24 06:08:08;;;;;;;6.63;3.27;;;;;;;;;;5006108;28;20056;-80
2023/10/24 06:11:19;;;;;;;4.50;2.80;;;;;;;;;;5025038;28;20037;-80
2023/10/24 06:17:21;;;;;;;3.90;2.42;;;;;;;;;;5004247;28;20501;-80
2023/10/24 06:19:51;;;;;;;5.05;2.70;;;;;;;;;;5004425;28;20022;-81
2023/10/24 06:25:58;;;;;;;;;;;;;;;;;;;;;
2023/10/24 06:28:35;;;;;;;5.70;3.00;;;;;;;;;;5021147;28;20105;-81
2023/10/24 06:31:06;;;;;;;6.35;3.13;;;;;;;;;;5019849;28;20029;-80
2023/10/24 06:34:11;;;;;;;;;;;;;;;;;;;;;
2023/10/24 06:37:13;;;;;;;6.60;3.10;;;;;;;;;;5020703;28;20105;-80
2023/10/24 06:43:55;;;;;;;;;;;;;;;;;;;;;
2023/10/24 06:50:39;;;;;;;7.22;3.13;;;;;;;;;;5021222;28;20030;-81
2023/10/24 06:56:53;;;;;;;5.72;3.30;;;;;;;;;;4977033;28;20629;-79
2023/10/24 06:59:29;;;;;;;5.68;3.03;;;;;;;;;;4980681;28;20077;-80
2023/10/24 07:01:57;;;;;;;9.00;3.20;;;;;;;;;;4994379;28;20591;-78
2023/10/24 07:31:01;;;;;;;8.43;3.47;;;;;;;;;;783278;26;20329;-79
2023/10/24 07:36:46;;;;;;;9.80;3.30;;;;;;;;;;4980415;28;20457;-79
2023/10/24 07:39:14;;;;;;;5.30;2.85;;;;;;;;;;4960432;28;20034;-79
2023/10/24 07:41:45;;;;;;;8.18;2.97;;;;;;;;;;4977007;28;20414;-79
2023/10/24 07:44:13;;;;;;;4.25;2.67;;;;;;;;;;4977849;28;20152;-80
2023/10/24 07:46:56;;;;;;;4.93;2.75;;;;;;;;;;4977552;28;20073;-85
2023/10/24 07:49:21;;;;;;;7.90;3.80;;;;;;;;;;4978584;28;20441;-79
2023/10/24 07:51:52;;;;;;;5.22;2.97;;;;;;;;;;4977981;28;20063;-79
2023/10/24 07:54:26;;;;;;;3.38;2.33;;;;;;;;;;4960036;28;20493;-79
2023/10/24 07:57:04;;;;;;;4.60;3.10;;;;;;;;;;4960159;28;20379;-79
2023/10/24 08:00:13;;;;;;;;;;;;;;;;;;;;;
2023/10/24 08:02:49;;;;;;;5.80;2.65;;;;;;;;;;4977388;28;20029;-80
2023/10/24 08:05:27;;;;;;;8.77;3.40;;;;;;;;;;4977204;28;20057;-79
2023/10/24 08:07:54;;;;;;;5.43;3.00;;;;;;;;;;4958362;28;20035;-79
2023/10/24 08:10:32;;;;;;;;;;;;;;;;;;;;;
2023/10/24 08:13:05;;;;;;;6.07;3.28;;;;;;;;;;4976938;28;20022;-80
2023/10/24 08:15:53;;;;;;;8.20;3.85;;;;;;;;;;4978406;28;20026;-80
2023/10/24 08:18:18;;;;;;;4.70;2.63;;;;;;;;;;4978064;28;20022;-78
2023/10/24 08:20:44;;;;;;;11.82;3.30;;;;;;;;;;4977817;28;20038;-81
2023/10/24 08:23:09;;;;;;;10.00;3.47;;;;;;;;;;4977885;28;20031;-78
2023/10/24 08:25:35;;;;;;;7.13;3.50;;;;;;;;;;4977305;28;20102;-80
2023/10/24 08:28:00;;;;;;;5.57;3.20;;;;;;;;;;4977917;28;20493;-80
2023/10/24 08:30:25;;;;;;;8.15;3.50;;;;;;;;;;4959223;28;20283;-80
2023/10/24 08:32:51;;;;;;;5.57;3.25;;;;;;;;;;4960703;28;20402;-79
2023/10/24 08:35:16;;;;;;;6.00;3.70;;;;;;;;;;4977564;28;20038;-79
2023/10/24 08:37:41;;;;;;;8.05;3.92;;;;;;;;;;4976323;28;20030;-79
2023/10/24 08:40:08;;;;;;;8.40;3.25;;;;;;;;;;4976868;28;20043;-78
2023/10/24 08:42:36;;;;;;;6.82;3.78;;;;;;;;;;4959146;28;20027;-80
2023/10/24 08:45:02;;;;;;;9.05;3.95;;;;;;;;;;4976315;28;20101;-79
2023/10/24 08:47:29;;;;;;;6.95;3.78;;;;;;;;;;4975497;28;20143;-79
2023/10/24 08:49:56;;;;;;;9.02;4.00;;;;;;;;;;4976422;28;20031;-79
2023/10/24 08:52:21;;;;;;;7.82;4.63;;;;;;;;;;4977092;28;20034;-79
2023/10/24 08:54:47;;;;;;;8.32;4.40;;;;;;;;;;4963482;28;20456;-78
2023/10/24 08:57:13;;;;;;;9.20;4.43;;;;;;;;;;4958228;28;20113;-77
2023/10/24 08:59:39;;;;;;;5.82;3.53;;;;;;;;;;4958159;28;20581;-77
2023/10/24 09:02:05;;;;;;;9.70;4.72;;;;;;;;;;4958127;28;20433;-79
2023/10/24 09:04:31;;;;;;;9.18;4.82;;;;;;;;;;4958192;28;20019;-79
2023/10/24 09:06:57;;;;;;;10.13;5.32;;;;;;;;;;4977487;28;20027;-79
2023/10/24 09:09:25;;;;;;;7.53;4.57;;;;;;;;;;4976597;28;20110;-79
2023/10/24 09:11:59;;;;;;;9.13;5.30;;;;;;;;;;4977208;28;20434;-79
2023/10/24 09:14:26;;;;;;;7.68;4.97;;;;;;;;;;4959626;28;20023;-79
2023/10/24 09:17:00;;;;;;;11.32;5.60;;;;;;;;;;4976426;28;20146;-79
2023/10/24 09:19:26;;;;;;;11.63;5.43;;;;;;;;;;4976615;28;20051;-78
2023/10/24 09:21:53;;;;;;;9.65;5.50;;;;;;;;;;4959131;28;20026;-79
2023/10/24 09:24:19;;;;;;;9.10;5.55;;;;;;;;;;4959269;28;20109;-79
2023/10/24 09:26:51;;;;;;;8.77;5.53;;;;;;;;;;4959366;28;20061;-80
2023/10/24 09:29:17;;;;;;;9.25;5.63;;;;;;;;;;4976295;28;20022;-79
2023/10/24 09:31:45;;;;;;;10.32;6.13;;;;;;;;;;4959175;28;20034;-79
2023/10/24 09:34:10;;;;;;;10.35;5.60;;;;;;;;;;4976761;28;20058;-81
2023/10/24 09:36:35;;;;;;;9.50;6.13;;;;;;;;;;4977057;28;20035;-80
2023/10/24 09:39:00;;;;;;;11.00;6.47;;;;;;;;;;4976472;28;20576;-78
2023/10/24 09:41:26;;;;;;;13.13;6.40;;;;;;;;;;4976557;28;20027;-79
2023/10/24 09:43:55;;;;;;;11.88;5.85;;;;;;;;;;4976585;28;20081;-79
2023/10/24 09:46:22;;;;;;;10.85;5.97;;;;;;;;;;4959320;28;20027;-79
2023/10/24 09:48:49;;;;;;;10.70;5.97;;;;;;;;;;4976637;28;20042;-78
2023/10/24 09:51:18;;;;;;;12.20;6.65;;;;;;;;;;4976166;28;20041;-79
2023/10/24 09:53:44;;;;;;;11.10;6.47;;;;;;;;;;4958993;28;20023;-79
2023/10/24 09:56:10;;;;;;;9.25;6.43;;;;;;;;;;4976075;28;20105;-78
2023/10/24 09:58:41;;;;;;;10.13;5.65;;;;;;;;;;4976913;28;20023;-79
2023/10/24 10:01:06;;;;;;;9.27;6.15;;;;;;;;;;4977127;28;20078;-79
2023/10/24 10:03:34;;;;;;;12.10;6.72;;;;;;;;;;4977027;28;20027;-79
2023/10/24 10:06:05;;;;;;;14.27;6.50;;;;;;;;;;4976291;28;20039;-79
2023/10/24 10:08:35;;;;;;;9.00;5.63;;;;;;;;;;4976643;28;20023;-78
2023/10/24 10:11:01;;;;;;;10.65;6.30;;;;;;;;;;4977381;28;20104;-78
2023/10/24 10:13:30;;;;;;;12.02;6.28;;;;;;;;;;4976951;28;20026;-79
2023/10/24 10:16:20;;;;;;;15.35;6.30;;;;;;;;;;4958544;28;20038;-79
2023/10/24 10:19:21;;;;;;;17.33;7.40;;;;;;;;;;4976212;28;20499;-78
2023/10/24 10:21:58;;;;;;;13.75;7.20;;;;;;;;;;4960594;28;20035;-79
2023/10/24 10:24:48;;;;;;;14.00;7.15;;;;;;;;;;4978108;28;20050;-80
2023/10/24 10:27:51;;;;;;;10.30;6.38;;;;;;;;;;4977553;28;20110;-79
2023/10/24 10:30:47;;;;;;;13.13;7.40;;;;;;;;;;4928524;28;20476;-80
2023/10/24 10:33:16;;;;;;;13.23;6.55;;;;;;;;;;4960316;28;20034;-79
2023/10/24 10:35:55;;;;;;;12.07;6.78;;;;;;;;;;4977578;28;20109;-79
2023/10/24 10:38:45;;;;;;;12.20;6.50;;;;;;;;;;4960011;28;20053;-79
2023/10/24 10:41:20;;;;;;;11.00;6.50;;;;;;;;;;4977655;28;20030;-80
2023/10/24 10:43:45;;;;;;;12.85;7.18;;;;;;;;;;4980569;28;20037;-80
2023/10/24 10:46:22;;;;;;;7.22;5.07;;;;;;;;;;4962748;28;20400;-79
2023/10/24 10:48:48;;;;;;;13.80;6.20;;;;;;;;;;4980678;28;20030;-79
2023/10/24 10:51:16;;;;;;;10.50;5.97;;;;;;;;;;4963648;28;20115;-79
2023/10/24 10:53:53;;;;;;;9.98;6.47;;;;;;;;;;4980804;28;20111;-79
2023/10/24 10:56:25;;;;;;;12.00;6.68;;;;;;;;;;4979922;28;20031;-79
2023/10/24 10:59:19;;;;;;;11.18;6.03;;;;;;;;;;4979355;28;20026;-77
2023/10/24 11:02:09;;;;;;;9.40;6.28;;;;;;;;;;4980218;28;20045;-78
2023/10/24 11:04:35;;;;;;;11.57;6.47;;;;;;;;;;4980620;28;20031;-80
2023/10/24 11:07:03;;;;;;;10.25;5.93;;;;;;;;;;4962904;28;20038;-79
2023/10/24 11:09:38;;;;;;;8.88;5.80;;;;;;;;;;4980322;28;20050;-79
2023/10/24 11:12:19;;;;;;;12.48;5.88;;;;;;;;;;4962900;28;20023;-78
2023/10/24 11:15:04;;;;;;;9.55;6.32;;;;;;;;;;4980609;28;20081;-78
2023/10/24 11:17:31;;;;;;;10.32;5.85;;;;;;;;;;4979745;28;20409;-80
2023/10/24 11:19:58;;;;;;;9.25;6.18;;;;;;;;;;4962708;28;20022;-77
2023/10/24 11:22:23;;;;;;;10.45;6.13;;;;;;;;;;4979454;28;20066;-79
2023/10/24 11:24:49;;;;;;;9.45;5.60;;;;;;;;;;4980367;28;20046;-79
2023/10/24 11:27:14;;;;;;;9.00;5.40;;;;;;;;;;4980249;28;20125;-79
2023/10/24 11:29:39;;;;;;;10.18;6.50;;;;;;;;;;4980002;28;20026;-79
2023/10/24 11:32:05;;;;;;;9.65;5.90;;;;;;;;;;4979903;28;20022;-80
2023/10/24 11:34:30;;;;;;;11.85;6.22;;;;;;;;;;4980227;28;20022;-79
2023/10/24 11:36:55;;;;;;;11.00;6.63;;;;;;;;;;4979658;28;20054;-79
2023/10/24 11:39:20;;;;;;;10.77;6.20;;;;;;;;;;4980318;28;20382;-78
2023/10/24 11:41:46;;;;;;;11.57;6.20;;;;;;;;;;4962426;28;20134;-79
2023/10/24 11:44:12;;;;;;;8.77;5.60;;;;;;;;;;4979024;28;20030;-78
2023/10/24 11:46:39;;;;;;;9.52;5.63;;;;;;;;;;4979234;28;20031;-78
2023/10/24 11:49:04;;;;;;;12.77;6.07;;;;;;;;;;4979068;28;20437;-78
2023/10/24 11:51:30;;;;;;;9.07;5.60;;;;;;;;;;4979339;28;20058;-77
2023/10/24 11:54:03;;;;;;;9.77;5.55;;;;;;;;;;4978894;28;20557;-77
2023/10/24 11:56:29;;;;;;;12.13;5.45;;;;;;;;;;4979339;28;20030;-79
2023/10/24 11:58:54;;;;;;;13.80;6.72;;;;;;;;;;4962387;28;20023;-79
2023/10/24 12:01:22;;;;;;;13.93;5.97;;;;;;;;;;4961514;28;20031;-80
2023/10/24 12:03:48;;;;;;;13.60;5.93;;;;;;;;;;4978950;28;20268;-79
2023/10/24 12:06:18;;;;;;;12.10;6.60;;;;;;;;;;4961413;28;20030;-80
2023/10/24 12:08:44;;;;;;;9.30;5.97;;;;;;;;;;4979296;28;20055;-80
2023/10/24 12:11:10;;;;;;;11.07;6.28;;;;;;;;;;4962229;28;20035;-79
2023/10/24 12:13:36;;;;;;;12.30;6.63;;;;;;;;;;4962006;28;20074;-80
2023/10/24 12:16:02;;;;;;;12.63;6.68;;;;;;;;;;4979265;28;20434;-78
2023/10/24 12:18:27;;;;;;;11.48;6.68;;;;;;;;;;4979503;28;20035;-80
2023/10/24 12:20:53;;;;;;;11.88;6.97;;;;;;;;;;4979400;28;20040;-80
2023/10/24 12:23:20;;;;;;;15.27;6.97;;;;;;;;;;4979550;28;20030;-80
2023/10/24 12:25:45;;;;;;;11.57;7.10;;;;;;;;;;4979381;28;20510;-80
2023/10/24 12:28:11;;;;;;;14.82;7.40;;;;;;;;;;4962176;28;20022;-80
2023/10/24 12:30:36;;;;;;;10.93;6.90;;;;;;;;;;4979620;28;20025;-79
2023/10/24 12:33:02;;;;;;;13.93;7.10;;;;;;;;;;4978788;28;20041;-80
2023/10/24 12:35:27;;;;;;;18.60;6.95;;;;;;;;;;4977607;28;20023;-79
2023/10/24 12:37:53;;;;;;;12.38;7.10;;;;;;;;;;4978082;28;20058;-80
2023/10/24 12:40:18;;;;;;;13.83;7.63;;;;;;;;;;4978765;28;20442;-79
2023/10/24 12:42:44;;;;;;;15.70;7.53;;;;;;;;;;4978049;28;20261;-79
2023/10/24 12:45:09;;;;;;;12.73;6.97;;;;;;;;;;4978000;28;20026;-80
2023/10/24 12:47:36;;;;;;;13.07;7.68;;;;;;;;;;4978324;28;20371;-79
2023/10/24 12:50:01;;;;;;;11.98;7.32;;;;;;;;;;4977732;28;20023;-80
2023/10/24 12:52:26;;;;;;;13.20;7.60;;;;;;;;;;4960551;28;20025;-80
2023/10/24 12:54:53;;;;;;;16.25;8.68;;;;;;;;;;4978385;28;20061;-80
2023/10/24 12:57:18;;;;;;;14.05;8.60;;;;;;;;;;4960828;28;20086;-80
2023/10/24 12:59:44;;;;;;;17.33;8.57;;;;;;;;;;4977933;28;20441;-80
2023/10/24 13:02:10;;;;;;;14.45;8.90;;;;;;;;;;4961099;28;20094;-79
2023/10/24 13:04:35;;;;;;;14.20;8.23;;;;;;;;;;4977039;28;20022;-80
2023/10/24 13:07:04;;;;;;;12.45;8.13;;;;;;;;;;4978160;28;20500;-80
2023/10/24 13:09:32;;;;;;;14.48;8.98;;;;;;;;;;4977997;28;20033;-80
2023/10/24 13:11:58;;;;;;;15.98;8.82;;;;;;;;;;4977507;28;20023;-79
2023/10/24 13:14:24;;;;;;;14.88;8.73;;;;;;;;;;4960605;28;20063;-80
2023/10/24 13:16:49;;;;;;;15.02;8.70;;;;;;;;;;4960276;28;20027;-80
2023/10/24 13:19:14;;;;;;;14.25;9.30;;;;;;;;;;4977264;28;20371;-79
2023/10/24 13:21:39;;;;;;;13.23;8.73;;;;;;;;;;4976905;28;20058;-78
2023/10/24 13:24:05;;;;;;;14.30;8.63;;;;;;;;;;4977244;28;20035;-78
2023/10/24 13:26:32;;;;;;;19.10;9.63;;;;;;;;;;4977066;28;20807;-79
2023/10/24 13:28:57;;;;;;;17.38;9.23;;;;;;;;;;4977510;28;20053;-79
2023/10/24 13:31:22;;;;;;;13.10;9.30;;;;;;;;;;4977436;28;20481;-80
2023/10/24 13:33:48;;;;;;;14.80;8.63;;;;;;;;;;4959954;28;20485;-79
2023/10/24 13:36:15;;;;;;;18.85;9.38;;;;;;;;;;4960019;28;20277;-80
2023/10/24 13:38:40;;;;;;;16.85;9.00;;;;;;;;;;4976575;28;20027;-79
2023/10/24 13:41:05;;;;;;;14.85;8.68;;;;;;;;;;4977254;28;20034;-80
2023/10/24 13:43:31;;;;;;;15.63;9.15;;;;;;;;;;4977189;28;20027;-78
2023/10/24 13:45:56;;;;;;;14.82;8.93;;;;;;;;;;4977207;28;20022;-78
2023/10/24 13:48:22;;;;;;;17.38;10.65;;;;;;;;;;4977560;28;20029;-79
2023/10/24 13:50:47;;;;;;;21.05;10.90;;;;;;;;;;4960045;28;20030;-79
2023/10/24 13:53:13;;;;;;;14.48;9.45;;;;;;;;;;4959978;28;20023;-79
2023/10/24 13:55:38;;;;;;;14.35;9.27;;;;;;;;;;4959566;28;20082;-78
2023/10/24 13:58:03;;;;;;;18.25;9.65;;;;;;;;;;4977083;28;20022;-79
2023/10/24 14:00:29;;;;;;;13.70;8.98;;;;;;;;;;4976959;28;20022;-78
2023/10/24 14:02:54;;;;;;;15.30;9.13;;;;;;;;;;4977656;28;20109;-78
2023/10/24 14:05:19;;;;;;;12.35;8.18;;;;;;;;;;4977187;28;20034;-78
2023/10/24 14:07:45;;;;;;;16.13;9.30;;;;;;;;;;4977177;28;20054;-78
2023/10/24 14:10:11;;;;;;;15.60;9.20;;;;;;;;;;4977146;28;20077;-80
2023/10/24 14:12:36;;;;;;;14.85;8.57;;;;;;;;;;4977201;28;20026;-78
2023/10/24 14:15:01;;;;;;;18.30;9.27;;;;;;;;;;4977343;28;20027;-79
2023/10/24 14:17:27;;;;;;;19.23;10.00;;;;;;;;;;4963111;28;20478;-80
2023/10/24 14:19:52;;;;;;;17.63;9.40;;;;;;;;;;4980925;28;20037;-80
2023/10/24 14:22:17;;;;;;;19.15;10.02;;;;;;;;;;4984834;28;20037;-80
2023/10/24 14:24:43;;;;;;;16.13;10.05;;;;;;;;;;4982480;28;20031;-79
2023/10/24 14:27:08;;;;;;;21.08;10.07;;;;;;;;;;4963186;28;20037;-78
2023/10/24 14:29:33;;;;;;;26.05;10.32;;;;;;;;;;4980834;28;20026;-79
2023/10/24 14:31:59;;;;;;;22.08;10.75;;;;;;;;;;4981303;28;20390;-79
2023/10/24 14:34:24;;;;;;;18.48;10.40;;;;;;;;;;4963379;28;20042;-79
2023/10/24 14:36:49;;;;;;;17.20;10.07;;;;;;;;;;4981445;28;20413;-77
2023/10/24 14:39:14;;;;;;;19.35;10.13;;;;;;;;;;4981063;28;20304;-79
2023/10/24 14:41:40;;;;;;;17.20;10.52;;;;;;;;;;4980887;28;20111;-78
2023/10/24 14:44:05;;;;;;;19.50;10.82;;;;;;;;;;4980759;28;20493;-79
2023/10/24 14:46:31;;;;;;;18.95;10.65;;;;;;;;;;4980464;28;20054;-79
2023/10/24 14:48:56;;;;;;;15.43;10.35;;;;;;;;;;4962329;28;20019;-78
2023/10/24 14:51:21;;;;;;;20.60;11.30;;;;;;;;;;4980920;28;20545;-77
2023/10/24 14:53:47;;;;;;;15.90;10.20;;;;;;;;;;4980692;28;20684;-78
2023/10/24 14:56:12;;;;;;;18.58;10.70;;;;;;;;;;4980316;28;20257;-78
2023/10/24 14:58:37;;;;;;;20.65;9.45;;;;;;;;;;4980890;28;20030;-78
2023/10/24 15:01:02;;;;;;;18.10;10.80;;;;;;;;;;4979929;28;20027;-77
2023/10/24 15:03:28;;;;;;;19.20;11.15;;;;;;;;;;4980534;28;20260;-78
2023/10/24 15:05:53;;;;;;;17.17;10.70;;;;;;;;;;4979328;28;20397;-77
2023/10/24 15:08:19;;;;;;;19.05;10.45;;;;;;;;;;4962167;28;20022;-78
2023/10/24 15:10:44;;;;;;;18.15;10.52;;;;;;;;;;4961804;28;20031;-77
2023/10/24 15:13:09;;;;;;;17.02;11.02;;;;;;;;;;4979437;28;20419;-78
2023/10/24 15:15:34;;;;;;;17.27;10.53;;;;;;;;;;4980118;28;20482;-78
2023/10/24 15:18:00;;;;;;;22.98;10.50;;;;;;;;;;4980314;28;20643;-78
2023/10/24 15:20:26;;;;;;;19.92;11.38;;;;;;;;;;4980219;28;20035;-77
2023/10/24 15:22:51;;;;;;;14.90;10.13;;;;;;;;;;4980187;28;20042;-79
2023/10/24 15:25:18;;;;;;;16.75;11.05;;;;;;;;;;4980082;28;20164;-79
2023/10/24 15:27:43;;;;;;;17.27;10.38;;;;;;;;;;4980618;28;20050;-82
2023/10/24 15:30:09;;;;;;;21.08;10.60;;;;;;;;;;4981162;28;20019;-85
2023/10/24 15:32:40;;;;;;;15.60;10.07;;;;;;;;;;4967818;28;20030;-80
2023/10/24 15:35:09;;;;;;;16.05;10.15;;;;;;;;;;4964510;28;20379;-78
2023/10/24 15:37:34;;;;;;;22.33;12.95;;;;;;;;;;4963069;28;20454;-78
2023/10/24 15:40:00;;;;;;;17.40;11.50;;;;;;;;;;4979225;28;20038;-79
2023/10/24 15:42:25;;;;;;;17.33;11.55;;;;;;;;;;4980659;28;20356;-78
2023/10/24 15:44:57;;;;;;;21.60;10.95;;;;;;;;;;4980097;28;20030;-77
2023/10/24 15:47:23;;;;;;;19.50;11.15;;;;;;;;;;4979737;28;20058;-78
2023/10/24 15:49:48;;;;;;;20.75;10.65;;;;;;;;;;4979157;28;20425;-77
2023/10/24 15:52:13;;;;;;;20.90;10.43;;;;;;;;;;4980114;28;20026;-77
2023/10/24 15:54:39;;;;;;;17.83;11.25;;;;;;;;;;4979509;28;20026;-77
2023/10/24 15:57:05;;;;;;;19.63;12.48;;;;;;;;;;4963775;28;20034;-76
2023/10/24 15:59:30;;;;;;;19.55;12.25;;;;;;;;;;4981152;28;20521;-81
2023/10/24 16:01:57;;;;;;;19.05;12.27;;;;;;;;;;4964006;28;20022;-76
2023/10/24 16:04:23;;;;;;;17.55;11.82;;;;;;;;;;4980704;28;20410;-80
2023/10/24 16:06:49;;;;;;;21.42;12.27;;;;;;;;;;4981000;28;20031;-77
2023/10/24 16:09:14;;;;;;;17.98;11.80;;;;;;;;;;4977137;28;20030;-76
2023/10/24 16:11:39;;;;;;;21.73;11.32;;;;;;;;;;4978281;28;20050;-77
2023/10/24 16:14:04;;;;;;;20.23;11.68;;;;;;;;;;4979384;28;20462;-77
2023/10/24 16:16:30;;;;;;;20.38;11.82;;;;;;;;;;4978143;28;20035;-80
2023/10/24 16:18:55;;;;;;;18.20;12.00;;;;;;;;;;4976210;28;20107;-75
2023/10/24 16:21:21;;;;;;;20.25;12.00;;;;;;;;;;4976141;28;20046;-76
2023/10/24 16:23:46;;;;;;;19.98;11.93;;;;;;;;;;4977807;28;20493;-75
2023/10/24 16:26:12;;;;;;;20.52;12.40;;;;;;;;;;4977434;28;20089;-75
2023/10/24 16:28:39;;;;;;;21.20;12.43;;;;;;;;;;4977455;28;20041;-76
2023/10/24 16:31:04;;;;;;;21.50;12.90;;;;;;;;;;4978283;28;20043;-75
2023/10/24 16:33:29;;;;;;;18.92;12.35;;;;;;;;;;4978181;28;20117;-75
2023/10/24 16:36:11;;;;;;;20.65;13.20;;;;;;;;;;5056849;23;20054;-76
2023/10/24 16:46:54;;;;;;;;;;;;;;;;;;;;;
2023/10/24 16:49:38;;;;;;;22.10;14.30;;;;;;;;;;4887620;29;20033;-77
2023/10/24 16:55:55;;;;;;;20.65;13.30;;;;;;;;;;4859820;29;20040;-76
2023/10/24 17:06:15;;;;;;;;;;;;;;;;;;;;;
2023/10/24 17:30:24;;;;;;;20.88;12.32;;;;;;;;;;4845488;29;20044;-77
2023/10/24 17:40:08;;;;;;;23.15;13.63;;;;;;;;;;4838658;29;20042;-76
2023/10/24 17:46:08;;;;;;;21.63;13.88;;;;;;;;;;4916165;29;20084;-78
2023/10/24 18:11:39;;;;;;;21.30;12.77;;;;;;;;;;1108897;23;20387;-80
2023/10/24 18:36:11;;;;;;;25.42;14.73;;;;;;;;;;4923065;29;20047;-77
2023/10/24 18:53:13;;;;;;;23.25;13.00;;;;;;;;;;4969250;28;20386;-76
2023/10/24 19:02:44;;;;;;;22.85;13.88;;;;;;;;;;4949044;28;20042;-77
2023/10/24 19:05:22;;;;;;;21.95;13.38;;;;;;;;;;4958202;28;20054;-76
2023/10/24 19:08:01;;;;;;;24.05;14.38;;;;;;;;;;4973295;28;20035;-76
2023/10/24 19:14:32;;;;;;;25.17;14.55;;;;;;;;;;4957261;28;20518;-76
2023/10/24 19:17:15;;;;;;;22.10;13.82;;;;;;;;;;4959907;28;20047;-76
2023/10/24 19:31:35;;;;;;;23.95;13.98;;;;;;;;;;4918780;29;20484;-77
2023/10/24 19:37:44;;;;;;;25.27;14.55;;;;;;;;;;4900225;29;20033;-77
2023/10/24 19:40:12;;;;;;;24.60;15.10;;;;;;;;;;4953757;28;20039;-78
2023/10/24 19:42:56;;;;;;;;;;;;;;;;;;;;;
2023/10/24 19:46:03;;;;;;;24.40;15.27;;;;;;;;;;4958901;28;20023;-77
2023/10/24 19:48:28;;;;;;;27.77;14.73;;;;;;;;;;4958868;28;20574;-77
2023/10/24 19:50:54;;;;;;;27.75;15.05;;;;;;;;;;4958761;28;20059;-77
2023/10/24 19:53:20;;;;;;;24.77;15.25;;;;;;;;;;4957969;28;20549;-77
2023/10/24 19:55:45;;;;;;;26.40;15.38;;;;;;;;;;4958713;28;20031;-77
2023/10/24 19:58:11;;;;;;;25.98;15.38;;;;;;;;;;4958846;29;20131;-77
2023/10/24 20:00:40;;;;;;;22.85;15.18;;;;;;;;;;4957565;29;20086;-77
2023/10/24 20:03:06;;;;;;;25.00;15.05;;;;;;;;;;4958591;28;20024;-76
2023/10/24 20:05:33;;;;;;;23.85;15.18;;;;;;;;;;4958469;28;20027;-76
2023/10/24 20:08:00;;;;;;;27.17;16.23;;;;;;;;;;4957485;29;20516;-77
2023/10/24 20:10:26;;;;;;;24.10;15.20;;;;;;;;;;4958783;29;20081;-77
2023/10/24 20:12:52;;;;;;;26.60;16.13;;;;;;;;;;4958874;28;20031;-76
2023/10/24 20:15:17;;;;;;;25.75;15.02;;;;;;;;;;4957163;28;20039;-77
2023/10/24 20:17:43;;;;;;;26.52;15.75;;;;;;;;;;4958612;28;20031;-76
2023/10/24 20:20:11;;;;;;;26.52;15.75;;;;;;;;;;4954701;29;20082;-77
2023/10/24 20:22:37;;;;;;;24.95;15.52;;;;;;;;;;4957142;29;20027;-76
2023/10/24 20:25:05;;;;;;;23.80;14.70;;;;;;;;;;4957779;28;20027;-77
2023/10/24 20:27:32;;;;;;;28.50;16.70;;;;;;;;;;4957408;28;20051;-77
2023/10/24 20:29:58;;;;;;;29.65;16.90;;;;;;;;;;4957410;28;20024;-78
2023/10/24 20:32:24;;;;;;;27.25;15.98;;;;;;;;;;4958442;29;20139;-75
2023/10/24 20:34:49;;;;;;;27.98;16.27;;;;;;;;;;4958029;28;20063;-76
2023/10/24 20:37:15;;;;;;;29.75;17.35;;;;;;;;;;4956230;29;20038;-78
2023/10/24 20:39:40;;;;;;;28.02;16.33;;;;;;;;;;4957382;28;20046;-82
2023/10/24 20:42:05;;;;;;;26.50;15.68;;;;;;;;;;4957215;28;20475;-76
2023/10/24 20:44:31;;;;;;;29.58;17.00;;;;;;;;;;4957502;28;20482;-76
2023/10/24 20:46:56;;;;;;;29.25;16.83;;;;;;;;;;4957390;29;20034;-76
2023/10/24 20:49:22;;;;;;;33.88;17.30;;;;;;;;;;4956821;29;20023;-76
2023/10/24 20:51:47;;;;;;;29.35;17.15;;;;;;;;;;4955164;29;20037;-76
2023/10/24 20:54:14;;;;;;;29.25;17.42;;;;;;;;;;4955856;29;20023;-77
2023/10/24 20:56:39;;;;;;;32.13;17.65;;;;;;;;;;4955587;28;20035;-76
2023/10/24 20:59:05;;;;;;;32.00;18.05;;;;;;;;;;4956632;29;20082;-76
2023/10/24 21:01:30;;;;;;;32.53;16.98;;;;;;;;;;4958801;29;20023;-76
2023/10/24 21:03:55;;;;;;;31.85;18.00;;;;;;;;;;4959080;28;20070;-76
2023/10/24 21:06:20;;;;;;;33.07;18.37;;;;;;;;;;4958161;28;20023;-76
2023/10/24 21:08:46;;;;;;;32.63;17.30;;;;;;;;;;4958808;29;20261;-80
2023/10/24 21:11:11;;;;;;;29.27;17.10;;;;;;;;;;4959643;29;20031;-76
2023/10/24 21:13:36;;;;;;;30.40;17.45;;;;;;;;;;4957906;29;20038;-75
2023/10/24 21:16:02;;;;;;;31.77;17.30;;;;;;;;;;4958651;28;20035;-76
2023/10/24 21:18:28;;;;;;;32.75;17.00;;;;;;;;;;4957096;29;20268;-75
2023/10/24 21:20:53;;;;;;;30.65;16.23;;;;;;;;;;4958091;29;20114;-75
2023/10/24 21:23:18;;;;;;;29.33;16.35;;;;;;;;;;4956586;29;20102;-74
2023/10/24 21:25:44;;;;;;;29.75;16.25;;;;;;;;;;4956565;28;20078;-75
2023/10/24 21:28:09;;;;;;;29.63;15.43;;;;;;;;;;4957134;28;20056;-75
2023/10/24 21:30:38;;;;;;;30.80;16.38;;;;;;;;;;4958156;28;20082;-75
2023/10/24 21:33:03;;;;;;;28.48;15.07;;;;;;;;;;4958624;29;20027;-75
2023/10/24 21:35:28;;;;;;;23.98;14.13;;;;;;;;;;4957409;28;20505;-75
2023/10/24 21:37:53;;;;;;;25.33;14.27;;;;;;;;;;4957683;29;20023;-76
2023/10/24 21:40:19;;;;;;;27.30;14.27;;;;;;;;;;4957818;29;20071;-75
2023/10/24 21:42:44;;;;;;;25.65;14.25;;;;;;;;;;4956946;29;20031;-75
2023/10/24 21:45:09;;;;;;;23.55;14.15;;;;;;;;;;4956469;28;20023;-76
2023/10/24 21:47:35;;;;;;;23.05;13.82;;;;;;;;;;4958311;29;20023;-75
2023/10/24 21:50:00;;;;;;;24.70;13.35;;;;;;;;;;4958232;28;20048;-75
2023/10/24 21:52:25;;;;;;;22.98;13.07;;;;;;;;;;4958475;29;20098;-75
2023/10/24 21:54:50;;;;;;;22.52;13.23;;;;;;;;;;4957718;28;20042;-76
2023/10/24 21:57:16;;;;;;;22.67;12.90;;;;;;;;;;4958109;29;20035;-75
2023/10/24 21:59:46;;;;;;;21.25;12.60;;;;;;;;;;4955898;29;20035;-74
2023/10/24 22:02:12;;;;;;;23.60;12.90;;;;;;;;;;4957554;29;20027;-75
2023/10/24 22:04:38;;;;;;;20.27;11.60;;;;;;;;;;4957246;28;20390;-75
2023/10/24 22:07:03;;;;;;;21.77;11.95;;;;;;;;;;4956481;28;20494;-75
2023/10/24 22:09:29;;;;;;;22.13;12.55;;;;;;;;;;4957347;29;20033;-75
2023/10/24 22:11:54;;;;;;;21.00;11.98;;;;;;;;;;4956849;28;20027;-75
2023/10/24 22:14:19;;;;;;;25.33;12.35;;;;;;;;;;4957624;28;20439;-75
2023/10/24 22:16:44;;;;;;;19.30;11.40;;;;;;;;;;4956639;28;20050;-74
2023/10/24 22:19:09;;;;;;;17.33;10.63;;;;;;;;;;4957293;29;20067;-75
2023/10/24 22:21:36;;;;;;;20.88;11.98;;;;;;;;;;4957841;28;20261;-75
2023/10/24 22:24:01;;;;;;;23.77;11.35;;;;;;;;;;4957247;28;20027;-75
2023/10/24 22:26:26;;;;;;;23.43;11.23;;;;;;;;;;4956919;28;20038;-75
2023/10/24 22:28:51;;;;;;;20.08;11.60;;;;;;;;;;4955791;29;20253;-74
2023/10/24 22:31:17;;;;;;;17.80;11.23;;;;;;;;;;4956693;29;20090;-76
2023/10/24 22:33:42;;;;;;;17.15;10.52;;;;;;;;;;4956881;29;20342;-75
2023/10/24 22:36:07;;;;;;;18.45;10.88;;;;;;;;;;4957651;28;20027;-75
2023/10/24 22:38:32;;;;;;;22.50;10.82;;;;;;;;;;4961500;29;20020;-76
2023/10/24 22:40:59;;;;;;;18.25;10.20;;;;;;;;;;4960601;29;20031;-76
2023/10/24 22:43:24;;;;;;;14.35;9.07;;;;;;;;;;4960677;29;20054;-75
2023/10/24 22:45:50;;;;;;;13.73;8.93;;;;;;;;;;4961139;28;20039;-76
2023/10/24 22:48:15;;;;;;;14.73;9.25;;;;;;;;;;4960690;29;20055;-76
2023/10/24 22:50:40;;;;;;;16.40;9.75;;;;;;;;;;4960620;29;20027;-75
2023/10/24 22:53:06;;;;;;;15.18;9.25;;;;;;;;;;4961400;29;20031;-76
2023/10/24 22:55:31;;;;;;;14.63;9.52;;;;;;;;;;4959136;28;20517;-76
2023/10/24 22:57:56;;;;;;;15.88;9.30;;;;;;;;;;4959130;29;20031;-76
2023/10/24 23:00:22;;;;;;;15.18;9.57;;;;;;;;;;4958266;29;20109;-76
2023/10/24 23:02:47;;;;;;;15.55;9.57;;;;;;;;;;4959877;29;20114;-75
2023/10/24 23:05:13;;;;;;;18.98;9.60;;;;;;;;;;4960329;28;20042;-75
2023/10/24 23:07:38;;;;;;;17.23;10.00;;;;;;;;;;4959990;29;20102;-75
2023/10/24 23:10:04;;;;;;;14.98;9.30;;;;;;;;;;4958363;29;20532;-74